Time;durP1;ratioP1;P1;durP2;ratioP2;P2;SDS_P1;SDS_P2;PMS_P1;PMS_P2;Temp;Humidity;BMP_temperature;BMP_pressure;BME280_temperature;BME280_humidity;BME280_pressure;Samples;Min_cycle;Max_cycle;Signal;HPM_P1;HPM_P2
2022/09/12 00:01:53;;;;;;;0.70;0.70;;;;;;;;;;6181419;23;20072;-79
2022/09/12 00:04:19;;;;;;;0.60;0.60;;;;;;;;;;6181571;23;20017;-79
2022/09/12 00:06:45;;;;;;;0.90;0.90;;;;;;;;;;6181211;23;20008;-79
2022/09/12 00:09:12;;;;;;;1.95;0.98;;;14.20;95.60;;;;;;6181963;23;20036;-79
2022/09/12 00:11:40;;;;;;;1.00;0.80;;;14.10;95.70;;;;;;6155023;23;20005;-79
2022/09/12 00:14:07;;;;;;;0.90;0.90;;;14.10;95.70;;;;;;6181032;23;20009;-79
2022/09/12 00:16:34;;;;;;;3.30;0.90;;;14.10;95.80;;;;;;6181276;23;20024;-79
2022/09/12 00:19:00;;;;;;;;;;;14.10;96.60;;;;;;6181772;23;20084;-79
2022/09/12 00:21:27;;;;;;;0.50;0.50;;;13.80;99.60;;;;;;6181198;23;19908;-79
2022/09/12 00:23:53;;;;;;;0.70;0.70;;;;;;;;;;6181271;23;20017;-80
2022/09/12 00:26:20;;;;;;;3.75;0.90;;;14.10;95.80;;;;;;6181544;23;20076;-79
2022/09/12 00:28:46;;;;;;;;;;;14.20;97.00;;;;;;6182362;23;20079;-79
2022/09/12 00:31:15;;;;;;;0.80;0.80;;;14.10;96.10;;;;;;6181197;23;20217;-79
2022/09/12 00:33:41;;;;;;;1.35;0.90;;;;;;;;;;6181378;23;20009;-79
2022/09/12 00:36:11;;;;;;;0.98;0.98;;;14.10;99.90;;;;;;6181654;23;20387;-79
2022/09/12 00:38:40;;;;;;;5.88;0.75;;;;;;;;;;6181155;23;20012;-79
2022/09/12 00:41:11;;;;;;;1.08;0.95;;;14.00;96.80;;;;;;6181774;23;20001;-80
2022/09/12 00:43:43;;;;;;;0.70;0.70;;;13.80;98.80;;;;;;6181321;23;20013;-79
2022/09/12 00:46:20;;;;;;;0.75;0.75;;;14.00;96.50;;;;;;6181243;23;20022;-79
2022/09/12 00:49:00;;;;;;;0.70;0.70;;;13.70;97.60;;;;;;6181657;23;20005;-79
2022/09/12 00:51:29;;;;;;;0.77;0.77;;;13.90;96.40;;;;;;6181412;23;20399;-80
2022/09/12 00:53:55;;;;;;;1.02;1.00;;;14.00;96.40;;;;;;6181563;23;20009;-79
2022/09/12 00:56:23;;;;;;;1.58;0.80;;;13.80;98.60;;;;;;6181673;23;20009;-79
2022/09/12 00:59:21;;;;;;;0.70;0.70;;;13.70;96.70;;;;;;6181126;23;20005;-79
2022/09/12 01:01:49;;;;;;;0.70;0.70;;;13.70;97.00;;;;;;6164722;23;20008;-79
2022/09/12 01:04:16;;;;;;;0.70;0.70;;;13.70;96.80;;;;;;6182997;23;20074;-80
2022/09/12 01:06:43;;;;;;;1.52;0.75;;;13.70;97.80;;;;;;6183375;23;20006;-78
2022/09/12 01:09:13;;;;;;;0.70;0.70;;;13.70;97.30;;;;;;6183014;23;20056;-79
2022/09/12 01:11:39;;;;;;;0.80;0.80;;;;;;;;;;6183132;23;20009;-79
2022/09/12 01:14:06;;;;;;;0.80;0.80;;;13.70;97.20;;;;;;6182487;23;20001;-80
2022/09/12 01:16:35;;;;;;;0.90;0.90;;;13.70;97.60;;;;;;6182560;23;20036;-79
2022/09/12 01:19:22;;;;;;;0.90;0.90;;;13.90;99.90;;;;;;6182990;23;20356;-79
2022/09/12 01:22:12;;;;;;;0.60;0.60;;;13.90;99.90;;;;;;6182694;23;20091;-79
2022/09/12 01:24:50;;;;;;;0.80;0.80;;;13.60;97.50;;;;;;6182941;23;20448;-79
2022/09/12 01:27:16;;;;;;;2.47;1.15;;;;;;;;;;6182958;23;20001;-79
2022/09/12 01:30:36;;;;;;;0.82;0.80;;;13.50;97.30;;;;;;6182707;23;20001;-79
2022/09/12 01:33:22;;;;;;;0.80;0.80;;;13.50;97.90;;;;;;6090898;23;20010;-79
2022/09/12 01:36:25;;;;;;;1.10;0.82;;;12.30;97.70;;;;;;6091327;23;20585;-80
2022/09/12 01:39:03;;;;;;;2.03;0.90;;;13.40;98.20;;;;;;6091223;23;20016;-79
2022/09/12 01:41:46;;;;;;;0.75;0.75;;;13.40;98.10;;;;;;6091369;23;20010;-79
2022/09/12 01:44:48;;;;;;;0.70;0.70;;;13.30;99.90;;;;;;6090651;23;20450;-79
2022/09/12 01:47:27;;;;;;;1.38;0.98;;;13.60;97.70;;;;;;6091573;23;20010;-79
2022/09/12 01:50:08;;;;;;;0.60;0.60;;;13.70;97.30;;;;;;6091097;23;20476;-80
2022/09/12 01:52:44;;;;;;;0.70;0.70;;;13.70;97.30;;;;;;6090884;23;20014;-80
2022/09/12 01:55:21;;;;;;;0.90;0.90;;;13.50;98.20;;;;;;6091348;23;20441;-78
2022/09/12 01:58:24;;;;;;;1.05;0.80;;;13.60;99.90;;;;;;6090230;23;20010;-79
2022/09/12 02:01:11;;;;;;;0.80;0.80;;;13.10;99.90;;;;;;6090282;23;20081;-79
2022/09/12 02:04:07;;;;;;;1.67;0.98;;;13.30;98.40;;;;;;6091011;23;20019;-79
2022/09/12 02:06:54;;;;;;;1.50;0.75;;;13.60;99.90;;;;;;6112062;23;20015;-79
2022/09/12 02:09:25;;;;;;;2.45;0.90;;;12.80;99.80;;;;;;6182239;23;20009;-79
2022/09/12 02:11:55;;;;;;;0.80;0.80;;;13.00;98.50;;;;;;6182269;23;20001;-79
2022/09/12 02:14:25;;;;;;;1.83;1.02;;;13.00;98.60;;;;;;6181708;23;20013;-79
2022/09/12 02:16:57;;;;;;;0.80;0.80;;;13.00;98.50;;;;;;6181981;23;20325;-79
2022/09/12 02:19:32;;;;;;;1.65;0.93;;;13.00;98.90;;;;;;6156074;23;20005;-79
2022/09/12 02:22:01;;;;;;;3.28;0.80;;;13.00;99.00;;;;;;6182613;23;20380;-79
2022/09/12 02:24:37;;;;;;;1.00;0.90;;;13.00;99.90;;;;;;6182433;23;20383;-79
2022/09/12 02:27:08;;;;;;;1.05;1.00;;;13.00;99.30;;;;;;6181899;23;20001;-79
2022/09/12 02:29:35;;;;;;;1.10;1.05;;;;;;;;;;6182339;23;20009;-80
2022/09/12 02:32:33;;;;;;;1.48;1.00;;;13.50;99.90;;;;;;6181961;23;19997;-79
2022/09/12 02:35:13;;;;;;;0.90;0.90;;;13.10;99.10;;;;;;6175965;23;20016;-79
2022/09/12 02:38:01;;;;;;;0.80;0.80;;;13.20;98.80;;;;;;6182202;23;20008;-79
2022/09/12 02:40:27;;;;;;;1.13;0.90;;;;;;;;;;6182310;23;20012;-79
2022/09/12 02:42:53;;;;;;;0.75;0.75;;;13.30;99.90;;;;;;6181916;23;20459;-79
2022/09/12 02:45:19;;;;;;;1.02;1.00;;;13.00;99.90;;;;;;6181569;23;20009;-80
2022/09/12 02:47:50;;;;;;;1.02;0.80;;;13.00;99.10;;;;;;6182013;23;20052;-80
2022/09/12 02:50:16;;;;;;;0.82;0.82;;;12.80;99.90;;;;;;6181979;23;20508;-79
2022/09/12 02:52:43;;;;;;;1.98;1.10;;;13.00;99.10;;;;;;6182140;23;20005;-80
2022/09/12 02:55:12;;;;;;;0.98;0.93;;;13.20;99.90;;;;;;6181721;23;20759;-79
2022/09/12 02:57:38;;;;;;;0.57;0.57;;;;;;;;;;6181974;23;20057;-79
2022/09/12 03:00:05;;;;;;;0.95;0.90;;;12.90;99.00;;;;;;6182233;23;20096;-79
2022/09/12 03:02:31;;;;;;;1.48;1.17;;;;;;;;;;6155290;23;20020;-79
2022/09/12 03:04:57;;;;;;;1.95;0.82;;;;;;;;;;6181592;23;20017;-79
2022/09/12 03:07:49;;;;;;;2.00;1.45;;;13.20;99.90;;;;;;6182301;23;20483;-79
2022/09/12 03:10:24;;;;;;;0.70;0.70;;;12.80;99.90;;;;;;6177336;23;20406;-80
2022/09/12 03:13:07;;;;;;;0.95;0.95;;;12.70;99.90;;;;;;6182057;23;20340;-78
2022/09/12 03:15:48;;;;;;;0.85;0.80;;;13.20;99.90;;;;;;6181513;23;20040;-80
2022/09/12 03:18:39;;;;;;;2.60;0.90;;;13.00;99.00;;;;;;6181653;23;20507;-80
2022/09/12 03:21:13;;;;;;;0.88;0.88;;;13.30;99.90;;;;;;6181569;23;20080;-79
2022/09/12 03:23:50;;;;;;;0.80;0.80;;;13.20;98.70;;;;;;6181915;23;20005;-79
2022/09/12 03:26:20;;;;;;;;;;;13.20;99.00;;;;;;6182024;23;20452;-79
2022/09/12 03:28:47;;;;;;;0.77;0.77;;;13.10;99.90;;;;;;6181934;23;19906;-79
2022/09/12 03:31:16;;;;;;;1.58;1.08;;;13.20;98.70;;;;;;6181399;23;20012;-80
2022/09/12 03:33:42;;;;;;;0.93;0.93;;;13.00;98.80;;;;;;6181795;23;20015;-80
2022/09/12 03:36:19;;;;;;;0.70;0.70;;;12.90;99.30;;;;;;6181666;23;20001;-80
2022/09/12 03:38:44;;;;;;;1.30;1.15;;;13.00;99.90;;;;;;6181638;23;20067;-80
2022/09/12 03:41:10;;;;;;;1.45;0.88;;;;;;;;;;6180970;23;19997;-80
2022/09/12 03:43:36;;;;;;;1.00;0.90;;;;;;;;;;6181946;23;20008;-80
2022/09/12 03:46:02;;;;;;;0.80;0.80;;;;;;;;;;6181256;23;20029;-79
2022/09/12 03:48:30;;;;;;;1.13;1.00;;;;;;;;;;6181662;23;20012;-79
2022/09/12 03:51:06;;;;;;;;;;;12.70;99.40;;;;;;6182157;23;20011;-79
2022/09/12 03:53:32;;;;;;;0.73;0.70;;;;;;;;;;6181309;23;19908;-80
2022/09/12 03:55:58;;;;;;;3.55;0.82;;;;;;;;;;6181613;23;20108;-80
2022/09/12 03:58:29;;;;;;;4.68;0.80;;;12.40;99.90;;;;;;6181265;23;20009;-79
2022/09/12 04:00:55;;;;;;;1.20;1.10;;;;;;;;;;6181315;23;20704;-80
2022/09/12 04:03:21;;;;;;;0.98;0.90;;;;;;;;;;6155206;23;20013;-80
2022/09/12 04:05:47;;;;;;;1.50;1.20;;;;;;;;;;6181765;23;20016;-80
2022/09/12 04:08:13;;;;;;;3.15;1.13;;;12.40;99.90;;;;;;6181618;23;20076;-80
2022/09/12 04:10:39;;;;;;;1.80;1.00;;;;;;;;;;6179810;23;20043;-80
2022/09/12 04:13:05;;;;;;;0.70;0.70;;;;;;;;;;6181552;23;20313;-79
2022/09/12 04:15:31;;;;;;;1.55;0.80;;;;;;;;;;6181023;23;20016;-80
2022/09/12 04:17:57;;;;;;;1.25;1.15;;;12.50;99.90;;;;;;6180719;23;20017;-79
2022/09/12 04:20:23;;;;;;;1.02;0.90;;;;;;;;;;6181543;23;20076;-79
2022/09/12 04:22:49;;;;;;;1.23;1.05;;;;;;;;;;6181358;23;19997;-79
2022/09/12 04:25:16;;;;;;;1.42;0.95;;;;;;;;;;6181640;23;20004;-79
2022/09/12 04:27:42;;;;;;;0.83;0.80;;;;;;;;;;6181100;23;20001;-80
2022/09/12 04:30:08;;;;;;;1.00;0.95;;;12.60;99.90;;;;;;6181331;23;20007;-80
2022/09/12 04:32:34;;;;;;;0.77;0.77;;;;;;;;;;6181720;23;20348;-80
2022/09/12 04:35:01;;;;;;;1.25;0.93;;;;;;;;;;6181062;23;20013;-79
2022/09/12 04:37:26;;;;;;;1.27;1.05;;;13.00;99.90;;;;;;6182757;23;20009;-79
2022/09/12 04:39:56;;;;;;;0.68;0.68;;;;;;;;;;6183492;23;20005;-80
2022/09/12 04:42:22;;;;;;;1.08;1.00;;;12.30;99.90;;;;;;6183233;23;20024;-79
2022/09/12 04:44:48;;;;;;;1.45;1.10;;;;;;;;;;6181339;23;20409;-80
2022/09/12 04:47:15;;;;;;;5.57;1.40;;;;;;;;;;6183699;23;20012;-80
2022/09/12 04:49:41;;;;;;;0.68;0.68;;;;;;;;;;6183197;23;20089;-80
2022/09/12 04:52:07;;;;;;;1.85;0.88;;;;;;;;;;6183252;23;20033;-80
2022/09/12 04:54:33;;;;;;;1.63;0.95;;;;;;;;;;6183114;23;20009;-80
2022/09/12 04:56:59;;;;;;;3.70;1.10;;;;;;;;;;6183008;23;20011;-80
2022/09/12 04:59:26;;;;;;;1.38;1.20;;;;;;;;;;6183089;23;20056;-80
2022/09/12 05:01:52;;;;;;;1.60;1.08;;;;;;;;;;6183310;23;20152;-80
2022/09/12 05:04:18;;;;;;;1.05;0.98;;;;;;;;;;6183186;23;20001;-80
2022/09/12 05:06:46;;;;;;;1.00;1.00;;;;;;;;;;6182925;23;20025;-79
2022/09/12 05:09:13;;;;;;;;;;;12.30;99.90;;;;;;6183666;23;20031;-80
2022/09/12 05:11:40;;;;;;;0.95;0.93;;;12.40;99.90;;;;;;6183093;23;19967;-80
2022/09/12 05:14:07;;;;;;;1.70;1.05;;;;;;;;;;6183239;23;20103;-80
2022/09/12 05:16:32;;;;;;;2.58;1.20;;;12.10;99.90;;;;;;6183157;23;20096;-80
2022/09/12 05:18:59;;;;;;;2.35;1.48;;;;;;;;;;6183175;23;20041;-80
2022/09/12 05:21:26;;;;;;;4.90;1.35;;;12.40;99.90;;;;;;6183242;23;20388;-80
2022/09/12 05:23:56;;;;;;;0.80;0.80;;;12.20;99.90;;;;;;6183299;23;20510;-80
2022/09/12 05:26:22;;;;;;;1.23;1.13;;;12.10;99.90;;;;;;6182751;23;20343;-80
2022/09/12 05:28:50;;;;;;;1.25;0.88;;;12.10;99.90;;;;;;6183089;23;20013;-80
2022/09/12 05:31:18;;;;;;;1.45;1.02;;;12.30;99.90;;;;;;6182506;23;20004;-80
2022/09/12 05:33:46;;;;;;;1.95;1.13;;;12.50;99.90;;;;;;6177059;23;20016;-75
2022/09/12 05:36:20;;;;;;;1.25;1.02;;;12.60;99.90;;;;;;6180225;23;20459;-75
2022/09/12 05:38:46;;;;;;;1.33;1.10;;;;;;;;;;6178485;23;20009;-75
2022/09/12 05:41:14;;;;;;;1.48;1.38;;;12.70;99.90;;;;;;6153063;23;20005;-76
2022/09/12 05:43:41;;;;;;;1.60;1.00;;;12.70;99.60;;;;;;6178683;23;20361;-75
2022/09/12 05:46:12;;;;;;;1.73;1.23;;;12.90;99.90;;;;;;6178523;23;20001;-75
2022/09/12 05:48:40;;;;;;;1.98;1.38;;;12.70;99.70;;;;;;6178997;23;20425;-75
2022/09/12 05:51:12;;;;;;;1.20;1.10;;;12.70;99.80;;;;;;6180006;23;20039;-81
2022/09/12 05:53:39;;;;;;;5.18;1.20;;;12.80;99.70;;;;;;6179963;23;20008;-76
2022/09/12 05:56:16;;;;;;;1.50;1.40;;;12.60;99.70;;;;;;6179981;23;20127;-77
2022/09/12 05:58:47;;;;;;;2.35;1.40;;;12.80;99.90;;;;;;6180967;23;20001;-79
2022/09/12 06:01:14;;;;;;;7.20;1.70;;;14.60;98.90;;;;;;6180666;23;20020;-75
2022/09/12 06:03:48;;;;;;;2.80;1.83;;;18.80;92.20;;;;;;6179879;23;20093;-76
2022/09/12 06:06:15;;;;;;;2.33;1.88;;;19.50;82.50;;;;;;6180634;23;20064;-76
2022/09/12 06:08:44;;;;;;;1.45;1.35;;;20.00;91.80;;;;;;6180902;23;20024;-76
2022/09/12 06:11:16;;;;;;;1.55;1.15;;;20.70;80.00;;;;;;6180566;23;20005;-76
2022/09/12 06:13:43;;;;;;;2.15;2.05;;;23.80;70.60;;;;;;6180282;23;20035;-76
2022/09/12 06:16:17;;;;;;;1.70;1.60;;;26.70;71.50;;;;;;6180325;23;20092;-76
2022/09/12 06:18:52;;;;;;;6.47;1.75;;;29.50;57.20;;;;;;6180948;23;20067;-76
2022/09/12 06:21:18;;;;;;;1.63;1.10;;;;;;;;;;6181160;23;20078;-76
2022/09/12 06:23:47;;;;;;;2.50;0.80;;;;;;;;;;6179731;23;20571;-77
2022/09/12 06:26:13;;;;;;;1.88;0.93;;;25.70;58.50;;;;;;6181143;23;20009;-76
2022/09/12 06:28:41;;;;;;;1.30;0.80;;;28.20;55.50;;;;;;6178839;23;20570;-76
2022/09/12 06:31:10;;;;;;;0.80;0.80;;;31.30;57.80;;;;;;6165442;23;20563;-75
2022/09/12 06:33:37;;;;;;;2.17;0.85;;;33.90;52.40;;;;;;6180579;23;20009;-74
2022/09/12 06:36:04;;;;;;;5.25;1.05;;;36.50;49.00;;;;;;6181232;23;20005;-75
2022/09/12 06:38:30;;;;;;;0.70;0.70;;;38.00;39.50;;;;;;6180794;23;20005;-74
2022/09/12 06:40:57;;;;;;;0.75;0.50;;;39.40;43.10;;;;;;6180667;23;20009;-74
2022/09/12 06:43:22;;;;;;;;;;;39.80;37.40;;;;;;6181775;23;20032;-76
2022/09/12 06:45:49;;;;;;;1.65;0.52;;;42.30;37.80;;;;;;6180192;23;20331;-76
2022/09/12 06:48:15;;;;;;;1.40;0.85;;;;;;;;;;6181357;23;20683;-76
2022/09/12 06:50:40;;;;;;;0.88;0.65;;;44.40;37.80;;;;;;6180990;23;20012;-76
2022/09/12 06:53:06;;;;;;;0.57;0.52;;;45.60;37.20;;;;;;6181022;23;20436;-76
2022/09/12 06:55:32;;;;;;;0.88;0.70;;;45.80;35.60;;;;;;6180318;23;20009;-75
2022/09/12 06:57:58;;;;;;;;;;;46.80;28.30;;;;;;6181006;23;20001;-75
2022/09/12 07:00:24;;;;;;;0.57;0.52;;;;;;;;;;6180139;23;20686;-76
2022/09/12 07:02:54;;;;;;;;;;;47.20;29.80;;;;;;6181117;23;20012;-76
2022/09/12 07:05:20;;;;;;;0.85;0.55;;;;;;;;;;6153485;23;19912;-76
2022/09/12 07:07:45;;;;;;;0.90;0.70;;;50.20;32.60;;;;;;6180791;23;19997;-76
2022/09/12 07:10:11;;;;;;;0.70;0.70;;;;;;;;;;6180873;23;20036;-78
2022/09/12 07:12:37;;;;;;;8.02;0.60;;;51.10;30.40;;;;;;6180535;23;20490;-78
2022/09/12 07:15:03;;;;;;;0.80;0.60;;;51.30;30.10;;;;;;6180243;23;19997;-78
2022/09/12 07:17:29;;;;;;;1.40;0.60;;;;;;;;;;6179967;23;20021;-78
2022/09/12 07:19:55;;;;;;;0.57;0.52;;;;;;;;;;6181027;23;20005;-78
2022/09/12 07:22:21;;;;;;;1.90;0.50;;;;;;;;;;6180583;23;20008;-78
2022/09/12 07:24:47;;;;;;;1.65;0.60;;;53.00;28.90;;;;;;6178413;23;20013;-79
2022/09/12 07:27:13;;;;;;;0.60;0.60;;;53.40;25.10;;;;;;6180762;23;20020;-79
2022/09/12 07:29:38;;;;;;;0.70;0.70;;;53.50;28.60;;;;;;6180943;23;20009;-80
2022/09/12 07:32:05;;;;;;;1.33;0.60;;;53.30;27.90;;;;;;6179798;23;20444;-78
2022/09/12 07:34:31;;;;;;;1.73;0.82;;;54.30;24.70;;;;;;6180662;23;20020;-78
2022/09/12 07:36:57;;;;;;;0.75;0.60;;;54.80;27.90;;;;;;6180846;23;20347;-78
2022/09/12 07:39:23;;;;;;;0.70;0.70;;;55.20;27.80;;;;;;6180331;23;20009;-76
2022/09/12 07:41:48;;;;;;;0.55;0.55;;;55.40;27.30;;;;;;6180802;23;20021;-75
2022/09/12 07:44:14;;;;;;;4.72;0.70;;;;;;;;;;6180256;23;20091;-79
2022/09/12 07:46:40;;;;;;;0.80;0.80;;;;;;;;;;6180072;23;20001;-77
2022/09/12 07:49:06;;;;;;;3.70;0.90;;;;;;;;;;6179992;23;20005;-76
2022/09/12 07:51:33;;;;;;;1.48;1.00;;;;;;;;;;6180168;23;20063;-77
2022/09/12 07:53:58;;;;;;;2.47;1.02;;;57.20;24.00;;;;;;6179932;23;20012;-77
2022/09/12 07:56:26;;;;;;;1.15;1.10;;;57.70;26.40;;;;;;6180338;23;20005;-77
2022/09/12 07:58:54;;;;;;;1.65;1.25;;;57.60;23.20;;;;;;6180617;23;20436;-77
2022/09/12 08:01:23;;;;;;;1.20;1.10;;;57.30;23.00;;;;;;6179802;23;20017;-79
2022/09/12 08:03:53;;;;;;;1.35;1.25;;;57.70;26.80;;;;;;6180129;23;20017;-79
2022/09/12 08:06:23;;;;;;;1.40;1.30;;;57.40;26.30;;;;;;6179862;23;20009;-80
2022/09/12 08:08:49;;;;;;;3.45;1.45;;;57.60;23.10;;;;;;6180036;23;20120;-81
2022/09/12 08:11:17;;;;;;;2.35;1.40;;;57.80;26.60;;;;;;6181161;23;20005;-81
2022/09/12 08:13:43;;;;;;;1.98;1.40;;;;;;;;;;6156142;23;20001;-83
2022/09/12 08:16:14;;;;;;;3.33;1.50;;;58.90;22.60;;;;;;6181028;23;20083;-80
2022/09/12 08:18:40;;;;;;;1.98;1.50;;;;;;;;;;6182358;23;20381;-82
2022/09/12 08:21:22;;;;;;;1.80;1.52;;;59.10;22.60;;;;;;6182442;23;20016;-78
2022/09/12 08:23:55;;;;;;;1.88;1.77;;;59.30;22.20;;;;;;6181720;23;20008;-83
2022/09/12 08:26:20;;;;;;;1.90;1.80;;;59.50;25.70;;;;;;6180838;23;20013;-83
2022/09/12 08:28:46;;;;;;;2.10;1.90;;;;;;;;;;6182427;23;20055;-84
2022/09/12 08:31:15;;;;;;;3.15;1.90;;;58.90;22.00;;;;;;6181725;23;20364;-82
2022/09/12 08:33:41;;;;;;;1.85;1.75;;;58.80;26.00;;;;;;6182149;23;20339;-87
2022/09/12 08:36:20;;;;;;;1.60;1.60;;;58.30;26.00;;;;;;6181860;23;20005;-87
2022/09/12 08:38:48;;;;;;;2.55;1.80;;;58.60;22.00;;;;;;6181815;23;20013;-87
2022/09/12 08:41:17;;;;;;;1.90;1.80;;;58.50;22.10;;;;;;6181997;23;20397;-87
2022/09/12 08:43:42;;;;;;;3.35;1.80;;;59.10;26.10;;;;;;6182179;23;20020;-83
2022/09/12 08:46:21;;;;;;;1.92;1.80;;;59.10;23.70;;;;;;6180900;23;20009;-82
2022/09/12 08:48:47;;;;;;;2.20;2.00;;;58.80;21.90;;;;;;6182071;23;20001;-85
2022/09/12 08:51:18;;;;;;;1.80;1.70;;;58.60;22.00;;;;;;6182186;23;20001;-84
2022/09/12 08:53:48;;;;;;;1.77;1.67;;;58.20;21.90;;;;;;6181903;23;20005;-82
2022/09/12 08:56:15;;;;;;;1.98;1.70;;;;;;;;;;6181982;23;20005;-82
2022/09/12 08:58:43;;;;;;;1.70;1.60;;;58.40;25.80;;;;;;6182299;23;20008;-83
2022/09/12 09:01:29;;;;;;;1.85;1.75;;;58.70;21.80;;;;;;6181533;23;20037;-85
2022/09/12 09:04:29;;;;;;;1.98;1.88;;;58.60;21.80;;;;;;6181393;23;20530;-83
2022/09/12 09:07:17;;;;;;;1.70;1.60;;;58.30;21.70;;;;;;6181011;23;20116;-83
2022/09/12 09:10:09;;;;;;;1.80;1.70;;;58.10;25.90;;;;;;6182149;23;20349;-83
2022/09/12 09:13:09;;;;;;;1.90;1.80;;;58.50;21.50;;;;;;6089819;23;20448;-83
2022/09/12 09:15:49;;;;;;;1.70;1.60;;;57.60;23.00;;;;;;6089091;23;20065;-81
2022/09/12 09:18:22;;;;;;;1.70;1.60;;;56.00;21.00;;;;;;6089814;23;20029;-82
2022/09/12 09:20:53;;;;;;;1.67;1.30;;;56.70;22.40;;;;;;6089893;23;20046;-79
2022/09/12 09:23:32;;;;;;;2.17;1.73;;;56.00;21.90;;;;;;6089343;23;20003;-79
2022/09/12 09:26:25;;;;;;;1.00;1.00;;;55.90;23.20;;;;;;6090288;23;20017;-86
2022/09/12 09:29:03;;;;;;;0.90;0.90;;;56.40;22.50;;;;;;6089964;23;20085;-83
2022/09/12 09:31:36;;;;;;;1.60;1.50;;;56.50;21.80;;;;;;6089518;23;20014;-84
2022/09/12 09:34:14;;;;;;;2.05;1.15;;;56.50;26.30;;;;;;6089406;23;20006;-86
2022/09/12 09:36:57;;;;;;;0.85;0.85;;;56.00;21.80;;;;;;6089438;23;20002;-84
2022/09/12 09:39:23;;;;;;;1.38;1.08;;;;;;;;;;6090056;23;20014;-84
2022/09/12 09:42:15;;;;;;;0.95;0.90;;;55.40;23.30;;;;;;6089635;23;20002;-86
2022/09/12 09:44:42;;;;;;;0.90;0.90;;;55.50;26.20;;;;;;6089186;23;20042;-84
2022/09/12 09:47:11;;;;;;;1.05;1.05;;;55.60;26.00;;;;;;6089909;23;20013;-85
2022/09/12 09:49:37;;;;;;;1.10;1.00;;;;;;;;;;6143469;23;20083;-90
2022/09/12 09:52:07;;;;;;;0.88;0.80;;;55.30;22.10;;;;;;6155288;23;20348;-88
2022/09/12 09:54:43;;;;;;;2.60;1.02;;;55.60;22.70;;;;;;6181546;23;20067;-81
2022/09/12 09:57:33;;;;;;;0.90;0.90;;;56.50;26.50;;;;;;6181199;23;20005;-81
2022/09/12 10:00:20;;;;;;;1.02;1.00;;;56.40;22.00;;;;;;6180580;23;20084;-81
2022/09/12 10:03:03;;;;;;;3.00;0.90;;;56.90;24.20;;;;;;6180345;23;20568;-82
2022/09/12 10:05:31;;;;;;;1.35;0.90;;;56.80;26.30;;;;;;6180655;23;20535;-81
2022/09/12 10:07:57;;;;;;;1.10;1.00;;;;;;;;;;6180999;23;20429;-81
2022/09/12 10:10:24;;;;;;;0.80;0.80;;;56.00;26.40;;;;;;6180783;23;20031;-81
2022/09/12 10:13:04;;;;;;;3.35;1.02;;;56.60;22.20;;;;;;6180690;23;20471;-82
2022/09/12 10:15:31;;;;;;;2.25;0.90;;;;;;;;;;6180122;23;20090;-81
2022/09/12 10:17:58;;;;;;;2.88;1.20;;;;;;;;;;6180443;23;20026;-81
2022/09/12 10:20:39;;;;;;;1.35;1.00;;;56.80;26.60;;;;;;6181051;23;20031;-81
2022/09/12 10:23:34;;;;;;;1.00;1.00;;;56.60;22.20;;;;;;6180492;23;20012;-81
2022/09/12 10:26:03;;;;;;;0.95;0.95;;;56.40;22.10;;;;;;6180646;23;20037;-82
2022/09/12 10:28:34;;;;;;;1.42;1.00;;;56.00;23.80;;;;;;6180783;23;20380;-81
2022/09/12 10:31:01;;;;;;;0.90;0.90;;;;;;;;;;6180477;23;20087;-81
2022/09/12 10:33:27;;;;;;;1.65;0.90;;;;;;;;;;6180329;23;20005;-80
2022/09/12 10:35:54;;;;;;;1.45;0.90;;;56.30;22.20;;;;;;6180424;23;20052;-81
2022/09/12 10:38:24;;;;;;;0.70;0.70;;;56.40;26.80;;;;;;6180693;23;20001;-81
2022/09/12 10:41:08;;;;;;;0.95;0.80;;;55.60;22.40;;;;;;6180957;23;20063;-81
2022/09/12 10:43:34;;;;;;;0.52;0.40;;;;;;;;;;6179827;23;20011;-82
2022/09/12 10:46:15;;;;;;;2.42;0.40;;;52.50;23.10;;;;;;6180109;23;20017;-81
2022/09/12 10:48:42;;;;;;;1.88;0.50;;;51.20;28.10;;;;;;6181116;23;20020;-80
2022/09/12 10:51:22;;;;;;;4.53;0.73;;;52.40;23.40;;;;;;6180423;23;20008;-81
2022/09/12 10:53:50;;;;;;;0.68;0.40;;;52.90;27.00;;;;;;6180041;23;20047;-81
2022/09/12 10:56:20;;;;;;;0.50;0.30;;;53.20;26.90;;;;;;6180313;23;20001;-80
2022/09/12 10:59:04;;;;;;;0.88;0.30;;;53.60;23.10;;;;;;6180054;23;20005;-81
2022/09/12 11:01:39;;;;;;;0.75;0.35;;;53.90;23.10;;;;;;6153261;23;20199;-81
2022/09/12 11:04:04;;;;;;;0.65;0.30;;;;;;;;;;6180135;23;20017;-81
2022/09/12 11:06:55;;;;;;;2.30;0.50;;;53.90;24.70;;;;;;6179910;23;20028;-81
2022/09/12 11:09:23;;;;;;;2.70;0.30;;;54.10;22.90;;;;;;6180608;23;20036;-81
2022/09/12 11:11:57;;;;;;;0.50;0.30;;;53.40;24.50;;;;;;6180595;23;20001;-81
2022/09/12 11:14:45;;;;;;;0.70;0.22;;;53.50;23.10;;;;;;6179078;23;20499;-81
2022/09/12 11:17:28;;;;;;;1.92;0.20;;;52.80;25.20;;;;;;6180448;23;20082;-90
2022/09/12 11:19:55;;;;;;;2.22;0.38;;;;;;;;;;6180023;23;20005;-83
2022/09/12 11:22:59;;;;;;;0.57;0.25;;;51.80;26.80;;;;;;6179973;23;20012;-85
2022/09/12 11:25:35;;;;;;;0.47;0.20;;;50.90;24.00;;;;;;6180198;23;20009;-85
2022/09/12 11:28:14;;;;;;;0.22;0.10;;;49.60;31.60;;;;;;6179820;23;20018;-79
2022/09/12 11:31:12;;;;;;;1.00;0.40;;;46.50;25.30;;;;;;6180166;23;19997;-78
2022/09/12 11:33:46;;;;;;;0.50;0.28;;;44.00;28.80;;;;;;6179610;23;20471;-84
2022/09/12 11:36:27;;;;;;;0.75;0.35;;;41.80;27.70;;;;;;6179510;23;20036;-84
2022/09/12 11:39:22;;;;;;;0.85;0.30;;;40.10;28.60;;;;;;6180826;23;20001;-78
2022/09/12 11:41:56;;;;;;;0.98;0.40;;;39.10;31.80;;;;;;6179871;23;20005;-79
2022/09/12 11:44:28;;;;;;;0.68;0.30;;;38.70;39.80;;;;;;6179196;23;20016;-82
2022/09/12 11:46:54;;;;;;;1.70;0.20;;;38.10;36.10;;;;;;6153721;23;20579;-81
2022/09/12 11:49:51;;;;;;;2.13;0.30;;;37.90;31.10;;;;;;6179673;23;20049;-80
2022/09/12 11:52:25;;;;;;;1.85;0.20;;;37.70;31.30;;;;;;6174533;23;20005;-81
2022/09/12 11:54:51;;;;;;;1.30;0.25;;;;;;;;;;6180268;23;20008;-79
2022/09/12 11:57:27;;;;;;;1.17;0.30;;;37.60;31.70;;;;;;6179269;23;20001;-81
2022/09/12 12:00:06;;;;;;;0.93;0.27;;;36.40;31.10;;;;;;6180450;23;20060;-85
2022/09/12 12:02:47;;;;;;;0.52;0.20;;;37.30;32.40;;;;;;6179752;23;20017;-83
2022/09/12 12:05:19;;;;;;;0.38;0.20;;;36.90;32.80;;;;;;6179623;23;20020;-82
2022/09/12 12:07:56;;;;;;;2.15;0.60;;;36.30;36.50;;;;;;6178896;23;20009;-84
2022/09/12 12:10:26;;;;;;;3.42;0.40;;;36.70;33.20;;;;;;6179976;23;20012;-86
2022/09/12 12:12:55;;;;;;;1.60;0.50;;;36.80;33.40;;;;;;6179857;23;20001;-85
2022/09/12 12:15:22;;;;;;;1.45;0.38;;;36.90;36.80;;;;;;6179977;23;20573;-82
2022/09/12 12:18:06;;;;;;;0.47;0.22;;;36.70;34.10;;;;;;6180582;23;20456;-80
2022/09/12 12:20:32;;;;;;;0.73;0.30;;;;;;;;;;6180278;23;20012;-79
2022/09/12 12:22:58;;;;;;;0.63;0.30;;;36.30;35.80;;;;;;6179979;23;20020;-82
2022/09/12 12:25:55;;;;;;;1.95;1.20;;;36.40;44.90;;;;;;6180085;23;20394;-87
2022/09/12 12:28:49;;;;;;;0.40;0.30;;;36.00;34.50;;;;;;6171122;23;20013;-85
2022/09/12 12:31:16;;;;;;;0.63;0.30;;;35.90;34.70;;;;;;6179597;23;20055;-80
2022/09/12 12:33:42;;;;;;;;;;;35.90;35.20;;;;;;6179680;23;20059;-79
2022/09/12 12:36:08;;;;;;;3.70;0.50;;;35.70;35.00;;;;;;6178454;23;19904;-80
2022/09/12 12:38:36;;;;;;;0.43;0.30;;;35.60;35.10;;;;;;6180340;23;20012;-79
2022/09/12 12:41:22;;;;;;;0.65;0.50;;;35.50;35.60;;;;;;6179666;23;20005;-79
2022/09/12 12:43:53;;;;;;;0.40;0.30;;;35.30;35.50;;;;;;6164603;23;20035;-78
2022/09/12 12:46:27;;;;;;;0.50;0.40;;;35.20;46.50;;;;;;6179063;23;20001;-79
2022/09/12 12:49:09;;;;;;;0.98;0.43;;;35.00;38.40;;;;;;6179957;23;20001;-79
2022/09/12 12:51:48;;;;;;;1.42;0.57;;;35.00;40.30;;;;;;6179797;23;20001;-79
2022/09/12 12:54:39;;;;;;;0.65;0.30;;;34.60;36.50;;;;;;6180026;23;20009;-80
2022/09/12 12:57:51;;;;;;;1.02;0.45;;;34.10;47.60;;;;;;6179108;23;20085;-77
2022/09/12 13:00:19;;;;;;;1.00;0.55;;;34.20;37.20;;;;;;6089907;23;20011;-78
2022/09/12 13:02:54;;;;;;;2.30;0.57;;;34.00;41.70;;;;;;6088932;23;20013;-77
2022/09/12 13:05:23;;;;;;;1.02;0.85;;;33.90;37.50;;;;;;6088537;23;20026;-77
2022/09/12 13:07:59;;;;;;;1.95;0.22;;;33.60;48.10;;;;;;6089922;23;20371;-76
2022/09/12 13:10:28;;;;;;;0.50;0.30;;;33.60;37.70;;;;;;6089837;23;20053;-78
2022/09/12 13:12:56;;;;;;;0.55;0.32;;;33.50;37.90;;;;;;6089402;23;20037;-78
2022/09/12 13:15:47;;;;;;;3.38;0.65;;;33.60;47.10;;;;;;6089550;23;20007;-77
2022/09/12 13:18:19;;;;;;;0.20;0.20;;;33.20;48.70;;;;;;6089638;23;20026;-78
2022/09/12 13:20:50;;;;;;;1.40;0.40;;;33.30;38.40;;;;;;6090002;23;20007;-78
2022/09/12 13:23:25;;;;;;;1.17;0.43;;;33.30;43.90;;;;;;6089934;23;20462;-78
2022/09/12 13:26:01;;;;;;;0.57;0.45;;;32.90;38.20;;;;;;6089825;23;20014;-77
2022/09/12 13:28:28;;;;;;;0.38;0.25;;;33.20;38.60;;;;;;6090193;23;20013;-78
2022/09/12 13:31:01;;;;;;;1.15;0.30;;;33.30;42.70;;;;;;6089717;23;20010;-78
2022/09/12 13:34:00;;;;;;;1.23;0.45;;;33.10;38.30;;;;;;6103361;23;20009;-78
2022/09/12 13:36:44;;;;;;;0.55;0.30;;;33.00;38.20;;;;;;6180961;23;20005;-77
2022/09/12 13:39:10;;;;;;;0.68;0.30;;;;;;;;;;6181614;23;20048;-76
2022/09/12 13:41:36;;;;;;;0.80;0.30;;;;;;;;;;6181516;23;20020;-77